sensor_id;sensor_type;location;lat;lon;timestamp;P1;durP1;ratioP1;P2;durP2;ratioP2
65073;SDS011;52218;51.224;-2.328;2022-08-01T00:01:55;2.38;;;0.70;;
65073;SDS011;52218;51.224;-2.328;2022-08-01T00:05:37;2.80;;;0.50;;
65073;SDS011;52218;51.224;-2.328;2022-08-01T00:09:19;2.05;;;0.60;;
65073;SDS011;52218;51.224;-2.328;2022-08-01T00:13:04;2.20;;;0.60;;
65073;SDS011;52218;51.224;-2.328;2022-08-01T00:16:49;1.80;;;0.60;;
65073;SDS011;52218;51.224;-2.328;2022-08-01T00:20:31;3.17;;;0.70;;
65073;SDS011;52218;51.224;-2.328;2022-08-01T00:24:13;1.67;;;0.55;;
65073;SDS011;52218;51.224;-2.328;2022-08-01T00:27:58;2.53;;;0.70;;
65073;SDS011;52218;51.224;-2.328;2022-08-01T00:31:39;2.28;;;0.63;;
65073;SDS011;52218;51.224;-2.328;2022-08-01T00:35:21;3.08;;;0.73;;
65073;SDS011;52218;51.224;-2.328;2022-08-01T00:39:03;2.92;;;0.60;;
65073;SDS011;52218;51.224;-2.328;2022-08-01T00:42:45;1.15;;;0.50;;
65073;SDS011;52218;51.224;-2.328;2022-08-01T00:46:27;1.42;;;0.57;;
65073;SDS011;52218;51.224;-2.328;2022-08-01T00:50:10;1.10;;;0.40;;
65073;SDS011;52218;51.224;-2.328;2022-08-01T00:53:52;0.95;;;0.47;;
65073;SDS011;52218;51.224;-2.328;2022-08-01T00:57:39;0.70;;;0.40;;
65073;SDS011;52218;51.224;-2.328;2022-08-01T01:01:41;1.10;;;0.50;;
65073;SDS011;52218;51.224;-2.328;2022-08-01T01:05:30;1.02;;;0.50;;
65073;SDS011;52218;51.224;-2.328;2022-08-01T01:13:11;1.15;;;0.60;;
65073;SDS011;52218;51.224;-2.328;2022-08-01T01:17:00;1.10;;;0.50;;
65073;SDS011;52218;51.224;-2.328;2022-08-01T01:20:52;1.58;;;0.60;;
65073;SDS011;52218;51.224;-2.328;2022-08-01T01:32:48;0.82;;;0.38;;
65073;SDS011;52218;51.224;-2.328;2022-08-01T01:36:32;0.88;;;0.50;;
65073;SDS011;52218;51.224;-2.328;2022-08-01T01:40:16;0.93;;;0.30;;
65073;SDS011;52218;51.224;-2.328;2022-08-01T01:44:01;0.63;;;0.40;;
65073;SDS011;52218;51.224;-2.328;2022-08-01T01:47:44;1.30;;;0.50;;
65073;SDS011;52218;51.224;-2.328;2022-08-01T01:51:27;1.10;;;0.47;;
65073;SDS011;52218;51.224;-2.328;2022-08-01T01:55:11;1.13;;;0.35;;
65073;SDS011;52218;51.224;-2.328;2022-08-01T01:58:55;0.70;;;0.32;;
65073;SDS011;52218;51.224;-2.328;2022-08-01T02:02:40;1.35;;;0.40;;
65073;SDS011;52218;51.224;-2.328;2022-08-01T02:06:23;1.33;;;0.40;;
65073;SDS011;52218;51.224;-2.328;2022-08-01T02:10:08;1.60;;;0.45;;
65073;SDS011;52218;51.224;-2.328;2022-08-01T02:13:53;1.05;;;0.40;;
65073;SDS011;52218;51.224;-2.328;2022-08-01T02:17:41;0.90;;;0.43;;
65073;SDS011;52218;51.224;-2.328;2022-08-01T02:21:29;0.75;;;0.50;;
65073;SDS011;52218;51.224;-2.328;2022-08-01T02:25:20;1.10;;;0.30;;
65073;SDS011;52218;51.224;-2.328;2022-08-01T02:29:09;0.93;;;0.40;;
65073;SDS011;52218;51.224;-2.328;2022-08-01T02:32:58;0.73;;;0.47;;
65073;SDS011;52218;51.224;-2.328;2022-08-01T02:36:44;2.05;;;0.50;;
65073;SDS011;52218;51.224;-2.328;2022-08-01T02:40:28;1.30;;;0.50;;
65073;SDS011;52218;51.224;-2.328;2022-08-01T02:44:23;2.00;;;0.50;;
65073;SDS011;52218;51.224;-2.328;2022-08-01T02:48:12;2.30;;;0.45;;
65073;SDS011;52218;51.224;-2.328;2022-08-01T02:51:56;1.27;;;0.40;;
65073;SDS011;52218;51.224;-2.328;2022-08-01T02:55:40;1.10;;;0.65;;
65073;SDS011;52218;51.224;-2.328;2022-08-01T02:59:23;1.35;;;0.57;;
65073;SDS011;52218;51.224;-2.328;2022-08-01T03:03:07;1.02;;;0.60;;
65073;SDS011;52218;51.224;-2.328;2022-08-01T03:06:53;0.73;;;0.52;;
65073;SDS011;52218;51.224;-2.328;2022-08-01T03:10:36;1.05;;;0.40;;
65073;SDS011;52218;51.224;-2.328;2022-08-01T03:14:21;1.20;;;0.60;;
65073;SDS011;52218;51.224;-2.328;2022-08-01T03:18:06;0.95;;;0.47;;
65073;SDS011;52218;51.224;-2.328;2022-08-01T03:21:50;1.38;;;0.60;;
65073;SDS011;52218;51.224;-2.328;2022-08-01T03:25:34;1.38;;;0.50;;
65073;SDS011;52218;51.224;-2.328;2022-08-01T03:29:21;1.67;;;0.55;;
65073;SDS011;52218;51.224;-2.328;2022-08-01T03:33:07;1.35;;;0.77;;
65073;SDS011;52218;51.224;-2.328;2022-08-01T03:40:53;0.50;;;0.40;;
65073;SDS011;52218;51.224;-2.328;2022-08-01T03:44:40;0.95;;;0.47;;
65073;SDS011;52218;51.224;-2.328;2022-08-01T03:48:28;3.00;;;0.60;;
65073;SDS011;52218;51.224;-2.328;2022-08-01T03:52:12;0.93;;;0.40;;
65073;SDS011;52218;51.224;-2.328;2022-08-01T03:55:55;1.17;;;0.60;;
65073;SDS011;52218;51.224;-2.328;2022-08-01T03:59:41;1.90;;;0.60;;
65073;SDS011;52218;51.224;-2.328;2022-08-01T04:03:24;0.60;;;0.38;;
65073;SDS011;52218;51.224;-2.328;2022-08-01T04:07:28;1.08;;;0.50;;
65073;SDS011;52218;51.224;-2.328;2022-08-01T04:11:10;0.63;;;0.30;;
65073;SDS011;52218;51.224;-2.328;2022-08-01T04:14:53;0.93;;;0.40;;
65073;SDS011;52218;51.224;-2.328;2022-08-01T04:18:35;2.00;;;0.57;;
65073;SDS011;52218;51.224;-2.328;2022-08-01T04:22:17;1.42;;;0.80;;
65073;SDS011;52218;51.224;-2.328;2022-08-01T04:25:59;1.33;;;0.52;;
65073;SDS011;52218;51.224;-2.328;2022-08-01T04:29:45;1.27;;;0.37;;
65073;SDS011;52218;51.224;-2.328;2022-08-01T04:33:29;0.93;;;0.40;;
65073;SDS011;52218;51.224;-2.328;2022-08-01T04:37:12;0.50;;;0.30;;
65073;SDS011;52218;51.224;-2.328;2022-08-01T04:40:57;1.25;;;0.40;;
65073;SDS011;52218;51.224;-2.328;2022-08-01T04:44:49;0.95;;;0.40;;
65073;SDS011;52218;51.224;-2.328;2022-08-01T04:48:32;0.52;;;0.30;;
65073;SDS011;52218;51.224;-2.328;2022-08-01T04:52:17;1.08;;;0.30;;
65073;SDS011;52218;51.224;-2.328;2022-08-01T04:56:04;0.82;;;0.40;;
65073;SDS011;52218;51.224;-2.328;2022-08-01T04:59:47;1.45;;;0.40;;
65073;SDS011;52218;51.224;-2.328;2022-08-01T05:03:30;1.23;;;0.40;;
65073;SDS011;52218;51.224;-2.328;2022-08-01T05:07:18;1.38;;;0.40;;
65073;SDS011;52218;51.224;-2.328;2022-08-01T05:11:00;0.85;;;0.40;;
65073;SDS011;52218;51.224;-2.328;2022-08-01T05:14:42;1.15;;;0.50;;
65073;SDS011;52218;51.224;-2.328;2022-08-01T05:18:24;0.73;;;0.30;;
65073;SDS011;52218;51.224;-2.328;2022-08-01T05:22:09;1.30;;;0.40;;
65073;SDS011;52218;51.224;-2.328;2022-08-01T05:25:51;1.50;;;0.57;;
65073;SDS011;52218;51.224;-2.328;2022-08-01T05:29:38;0.68;;;0.40;;
65073;SDS011;52218;51.224;-2.328;2022-08-01T05:37:06;1.00;;;0.40;;
65073;SDS011;52218;51.224;-2.328;2022-08-01T05:40:48;1.52;;;0.40;;
65073;SDS011;52218;51.224;-2.328;2022-08-01T05:44:30;1.17;;;0.40;;
65073;SDS011;52218;51.224;-2.328;2022-08-01T05:48:12;0.88;;;0.32;;
65073;SDS011;52218;51.224;-2.328;2022-08-01T05:51:54;1.77;;;0.50;;
65073;SDS011;52218;51.224;-2.328;2022-08-01T05:55:36;0.82;;;0.38;;
65073;SDS011;52218;51.224;-2.328;2022-08-01T05:59:19;0.77;;;0.30;;
65073;SDS011;52218;51.224;-2.328;2022-08-01T06:03:02;1.15;;;0.35;;
65073;SDS011;52218;51.224;-2.328;2022-08-01T06:06:44;1.30;;;0.40;;
65073;SDS011;52218;51.224;-2.328;2022-08-01T06:10:26;1.35;;;0.32;;
65073;SDS011;52218;51.224;-2.328;2022-08-01T06:14:08;0.88;;;0.38;;
65073;SDS011;52218;51.224;-2.328;2022-08-01T06:17:50;0.80;;;0.28;;
65073;SDS011;52218;51.224;-2.328;2022-08-01T06:21:32;1.40;;;0.30;;
65073;SDS011;52218;51.224;-2.328;2022-08-01T06:25:14;1.05;;;0.20;;
65073;SDS011;52218;51.224;-2.328;2022-08-01T06:29:01;0.60;;;0.30;;
65073;SDS011;52218;51.224;-2.328;2022-08-01T06:32:43;2.22;;;0.40;;
65073;SDS011;52218;51.224;-2.328;2022-08-01T06:36:25;0.85;;;0.30;;
65073;SDS011;52218;51.224;-2.328;2022-08-01T06:40:08;0.55;;;0.30;;
65073;SDS011;52218;51.224;-2.328;2022-08-01T06:43:57;0.98;;;0.30;;
65073;SDS011;52218;51.224;-2.328;2022-08-01T06:47:43;3.92;;;0.40;;
65073;SDS011;52218;51.224;-2.328;2022-08-01T06:51:45;0.82;;;0.40;;
65073;SDS011;52218;51.224;-2.328;2022-08-01T06:55:27;2.45;;;0.60;;
65073;SDS011;52218;51.224;-2.328;2022-08-01T06:59:09;3.45;;;0.40;;
65073;SDS011;52218;51.224;-2.328;2022-08-01T07:02:52;1.17;;;0.30;;
65073;SDS011;52218;51.224;-2.328;2022-08-01T07:06:36;0.68;;;0.30;;
65073;SDS011;52218;51.224;-2.328;2022-08-01T07:10:18;1.80;;;0.50;;
65073;SDS011;52218;51.224;-2.328;2022-08-01T07:14:00;1.95;;;0.55;;
65073;SDS011;52218;51.224;-2.328;2022-08-01T07:17:42;1.40;;;0.50;;
65073;SDS011;52218;51.224;-2.328;2022-08-01T07:21:24;1.88;;;0.40;;
65073;SDS011;52218;51.224;-2.328;2022-08-01T07:25:21;0.60;;;0.30;;
65073;SDS011;52218;51.224;-2.328;2022-08-01T07:29:03;1.50;;;0.40;;
65073;SDS011;52218;51.224;-2.328;2022-08-01T07:32:45;0.95;;;0.55;;
65073;SDS011;52218;51.224;-2.328;2022-08-01T07:36:26;1.83;;;0.40;;
65073;SDS011;52218;51.224;-2.328;2022-08-01T07:40:09;0.88;;;0.28;;
65073;SDS011;52218;51.224;-2.328;2022-08-01T07:43:51;1.98;;;0.50;;
65073;SDS011;52218;51.224;-2.328;2022-08-01T07:47:40;1.58;;;0.30;;
65073;SDS011;52218;51.224;-2.328;2022-08-01T07:51:22;1.17;;;0.40;;
65073;SDS011;52218;51.224;-2.328;2022-08-01T07:55:05;0.50;;;0.20;;
65073;SDS011;52218;51.224;-2.328;2022-08-01T07:58:47;0.68;;;0.30;;
65073;SDS011;52218;51.224;-2.328;2022-08-01T08:02:29;2.13;;;0.40;;
65073;SDS011;52218;51.224;-2.328;2022-08-01T08:06:11;2.20;;;0.30;;
65073;SDS011;52218;51.224;-2.328;2022-08-01T08:09:53;1.35;;;0.30;;
65073;SDS011;52218;51.224;-2.328;2022-08-01T08:13:35;2.28;;;0.60;;
65073;SDS011;52218;51.224;-2.328;2022-08-01T08:17:17;2.58;;;0.40;;
65073;SDS011;52218;51.224;-2.328;2022-08-01T08:20:59;2.00;;;0.40;;
65073;SDS011;52218;51.224;-2.328;2022-08-01T08:24:46;0.65;;;0.30;;
65073;SDS011;52218;51.224;-2.328;2022-08-01T08:28:28;0.93;;;0.30;;
65073;SDS011;52218;51.224;-2.328;2022-08-01T08:32:11;0.65;;;0.30;;
65073;SDS011;52218;51.224;-2.328;2022-08-01T08:35:53;2.13;;;0.30;;
65073;SDS011;52218;51.224;-2.328;2022-08-01T08:39:36;1.77;;;0.38;;
65073;SDS011;52218;51.224;-2.328;2022-08-01T08:43:22;1.38;;;0.32;;
65073;SDS011;52218;51.224;-2.328;2022-08-01T08:47:06;1.15;;;0.30;;
65073;SDS011;52218;51.224;-2.328;2022-08-01T08:50:57;0.93;;;0.32;;
65073;SDS011;52218;51.224;-2.328;2022-08-01T08:54:41;0.65;;;0.30;;
65073;SDS011;52218;51.224;-2.328;2022-08-01T08:58:26;1.02;;;0.30;;
65073;SDS011;52218;51.224;-2.328;2022-08-01T09:05:54;0.32;;;0.17;;
65073;SDS011;52218;51.224;-2.328;2022-08-01T09:09:36;1.13;;;0.30;;
65073;SDS011;52218;51.224;-2.328;2022-08-01T09:13:22;1.70;;;0.40;;
65073;SDS011;52218;51.224;-2.328;2022-08-01T09:17:05;1.55;;;0.30;;
65073;SDS011;52218;51.224;-2.328;2022-08-01T09:20:49;1.05;;;0.20;;
65073;SDS011;52218;51.224;-2.328;2022-08-01T09:24:32;1.80;;;0.30;;
65073;SDS011;52218;51.224;-2.328;2022-08-01T09:28:14;1.13;;;0.17;;
65073;SDS011;52218;51.224;-2.328;2022-08-01T09:31:56;0.82;;;0.30;;
65073;SDS011;52218;51.224;-2.328;2022-08-01T09:35:42;0.93;;;0.30;;
65073;SDS011;52218;51.224;-2.328;2022-08-01T09:39:29;0.38;;;0.20;;
65073;SDS011;52218;51.224;-2.328;2022-08-01T09:43:12;1.73;;;0.28;;
65073;SDS011;52218;51.224;-2.328;2022-08-01T09:46:55;0.95;;;0.20;;
65073;SDS011;52218;51.224;-2.328;2022-08-01T09:50:41;1.13;;;0.20;;
65073;SDS011;52218;51.224;-2.328;2022-08-01T09:54:32;0.50;;;0.30;;
65073;SDS011;52218;51.224;-2.328;2022-08-01T09:58:15;0.77;;;0.28;;
65073;SDS011;52218;51.224;-2.328;2022-08-01T10:01:57;0.50;;;0.20;;
65073;SDS011;52218;51.224;-2.328;2022-08-01T10:05:39;1.30;;;0.20;;
65073;SDS011;52218;51.224;-2.328;2022-08-01T10:09:30;1.10;;;0.30;;
65073;SDS011;52218;51.224;-2.328;2022-08-01T10:13:21;4.95;;;0.45;;
65073;SDS011;52218;51.224;-2.328;2022-08-01T10:17:05;1.55;;;0.20;;
65073;SDS011;52218;51.224;-2.328;2022-08-01T10:20:59;1.10;;;0.30;;
65073;SDS011;52218;51.224;-2.328;2022-08-01T10:24:50;1.73;;;0.20;;
65073;SDS011;52218;51.224;-2.328;2022-08-01T10:28:37;1.08;;;0.30;;
65073;SDS011;52218;51.224;-2.328;2022-08-01T10:32:20;0.75;;;0.20;;
65073;SDS011;52218;51.224;-2.328;2022-08-01T10:36:05;0.73;;;0.20;;
65073;SDS011;52218;51.224;-2.328;2022-08-01T10:39:49;0.77;;;0.32;;
65073;SDS011;52218;51.224;-2.328;2022-08-01T10:43:52;0.65;;;0.30;;
65073;SDS011;52218;51.224;-2.328;2022-08-01T10:47:40;2.67;;;0.30;;
65073;SDS011;52218;51.224;-2.328;2022-08-01T10:51:31;0.85;;;0.20;;
65073;SDS011;52218;51.224;-2.328;2022-08-01T10:59:48;0.30;;;0.20;;
65073;SDS011;52218;51.224;-2.328;2022-08-01T11:03:42;1.23;;;0.40;;
65073;SDS011;52218;51.224;-2.328;2022-08-01T11:07:48;1.00;;;0.30;;
65073;SDS011;52218;51.224;-2.328;2022-08-01T11:11:34;0.95;;;0.20;;
65073;SDS011;52218;51.224;-2.328;2022-08-01T11:15:46;0.73;;;0.20;;
65073;SDS011;52218;51.224;-2.328;2022-08-01T11:20:03;0.88;;;0.17;;
65073;SDS011;52218;51.224;-2.328;2022-08-01T11:23:53;1.10;;;0.30;;
65073;SDS011;52218;51.224;-2.328;2022-08-01T11:27:38;1.50;;;0.30;;
65073;SDS011;52218;51.224;-2.328;2022-08-01T11:35:02;0.73;;;0.20;;
65073;SDS011;52218;51.224;-2.328;2022-08-01T11:42:38;0.77;;;0.30;;
65073;SDS011;52218;51.224;-2.328;2022-08-01T11:46:38;1.92;;;0.32;;
65073;SDS011;52218;51.224;-2.328;2022-08-01T11:50:32;2.78;;;0.47;;
65073;SDS011;52218;51.224;-2.328;2022-08-01T11:54:15;0.70;;;0.30;;
65073;SDS011;52218;51.224;-2.328;2022-08-01T11:58:17;0.73;;;0.10;;
65073;SDS011;52218;51.224;-2.328;2022-08-01T12:02:15;0.80;;;0.20;;
65073;SDS011;52218;51.224;-2.328;2022-08-01T12:06:10;0.50;;;0.20;;
65073;SDS011;52218;51.224;-2.328;2022-08-01T12:10:00;1.85;;;0.30;;
65073;SDS011;52218;51.224;-2.328;2022-08-01T12:13:45;1.15;;;0.20;;
65073;SDS011;52218;51.224;-2.328;2022-08-01T12:17:38;1.15;;;0.30;;
65073;SDS011;52218;51.224;-2.328;2022-08-01T12:21:38;0.40;;;0.10;;
65073;SDS011;52218;51.224;-2.328;2022-08-01T12:25:20;0.70;;;0.20;;
65073;SDS011;52218;51.224;-2.328;2022-08-01T12:29:02;1.45;;;0.20;;
65073;SDS011;52218;51.224;-2.328;2022-08-01T12:32:44;0.57;;;0.20;;
65073;SDS011;52218;51.224;-2.328;2022-08-01T12:36:28;0.88;;;0.22;;
65073;SDS011;52218;51.224;-2.328;2022-08-01T12:40:12;2.58;;;0.22;;
65073;SDS011;52218;51.224;-2.328;2022-08-01T12:44:01;0.63;;;0.20;;
65073;SDS011;52218;51.224;-2.328;2022-08-01T12:47:43;1.10;;;0.30;;
65073;SDS011;52218;51.224;-2.328;2022-08-01T12:51:26;1.58;;;0.22;;
65073;SDS011;52218;51.224;-2.328;2022-08-01T12:55:12;1.02;;;0.15;;
65073;SDS011;52218;51.224;-2.328;2022-08-01T12:58:59;0.52;;;0.20;;
65073;SDS011;52218;51.224;-2.328;2022-08-01T13:02:41;3.10;;;0.28;;
65073;SDS011;52218;51.224;-2.328;2022-08-01T13:06:24;1.42;;;0.38;;
65073;SDS011;52218;51.224;-2.328;2022-08-01T13:10:10;1.27;;;0.30;;
65073;SDS011;52218;51.224;-2.328;2022-08-01T13:13:53;0.77;;;0.10;;
65073;SDS011;52218;51.224;-2.328;2022-08-01T13:17:35;0.95;;;0.30;;
65073;SDS011;52218;51.224;-2.328;2022-08-01T13:21:22;0.50;;;0.13;;
65073;SDS011;52218;51.224;-2.328;2022-08-01T13:25:09;0.98;;;0.20;;
65073;SDS011;52218;51.224;-2.328;2022-08-01T13:29:04;1.17;;;0.30;;
65073;SDS011;52218;51.224;-2.328;2022-08-01T13:32:57;0.65;;;0.15;;
65073;SDS011;52218;51.224;-2.328;2022-08-01T13:36:40;0.80;;;0.38;;
65073;SDS011;52218;51.224;-2.328;2022-08-01T13:40:29;0.65;;;0.20;;
65073;SDS011;52218;51.224;-2.328;2022-08-01T13:44:11;1.60;;;0.30;;
65073;SDS011;52218;51.224;-2.328;2022-08-01T13:47:53;1.48;;;0.30;;
65073;SDS011;52218;51.224;-2.328;2022-08-01T13:51:56;0.40;;;0.10;;
65073;SDS011;52218;51.224;-2.328;2022-08-01T13:55:38;2.67;;;0.20;;
65073;SDS011;52218;51.224;-2.328;2022-08-01T13:59:20;1.90;;;0.30;;
65073;SDS011;52218;51.224;-2.328;2022-08-01T14:03:02;1.98;;;0.20;;
65073;SDS011;52218;51.224;-2.328;2022-08-01T14:06:44;1.80;;;0.30;;
65073;SDS011;52218;51.224;-2.328;2022-08-01T14:10:27;2.30;;;0.20;;
65073;SDS011;52218;51.224;-2.328;2022-08-01T14:14:09;0.30;;;0.17;;
65073;SDS011;52218;51.224;-2.328;2022-08-01T14:17:51;0.68;;;0.10;;
65073;SDS011;52218;51.224;-2.328;2022-08-01T14:21:33;2.70;;;0.30;;
65073;SDS011;52218;51.224;-2.328;2022-08-01T14:25:15;0.43;;;0.15;;
65073;SDS011;52218;51.224;-2.328;2022-08-01T14:29:19;0.70;;;0.20;;
65073;SDS011;52218;51.224;-2.328;2022-08-01T14:33:01;1.75;;;0.25;;
65073;SDS011;52218;51.224;-2.328;2022-08-01T14:36:43;1.27;;;0.25;;
65073;SDS011;52218;51.224;-2.328;2022-08-01T14:40:25;0.93;;;0.20;;
65073;SDS011;52218;51.224;-2.328;2022-08-01T14:44:07;3.92;;;0.30;;
65073;SDS011;52218;51.224;-2.328;2022-08-01T14:47:50;2.00;;;0.30;;
65073;SDS011;52218;51.224;-2.328;2022-08-01T14:51:32;0.93;;;0.30;;
65073;SDS011;52218;51.224;-2.328;2022-08-01T14:55:15;1.17;;;0.30;;
65073;SDS011;52218;51.224;-2.328;2022-08-01T14:58:57;2.15;;;0.28;;
65073;SDS011;52218;51.224;-2.328;2022-08-01T15:02:40;0.30;;;0.10;;
65073;SDS011;52218;51.224;-2.328;2022-08-01T15:06:22;1.25;;;0.20;;
65073;SDS011;52218;51.224;-2.328;2022-08-01T15:10:04;0.57;;;0.20;;
65073;SDS011;52218;51.224;-2.328;2022-08-01T15:13:47;0.65;;;0.10;;
65073;SDS011;52218;51.224;-2.328;2022-08-01T15:17:49;0.98;;;0.10;;
65073;SDS011;52218;51.224;-2.328;2022-08-01T15:21:32;0.35;;;0.10;;
65073;SDS011;52218;51.224;-2.328;2022-08-01T15:25:22;0.43;;;0.20;;
65073;SDS011;52218;51.224;-2.328;2022-08-01T15:29:04;0.55;;;0.13;;
65073;SDS011;52218;51.224;-2.328;2022-08-01T15:32:46;0.38;;;0.10;;
65073;SDS011;52218;51.224;-2.328;2022-08-01T15:36:31;0.20;;;0.10;;
65073;SDS011;52218;51.224;-2.328;2022-08-01T15:40:13;0.22;;;0.10;;
65073;SDS011;52218;51.224;-2.328;2022-08-01T15:43:55;2.00;;;0.10;;
65073;SDS011;52218;51.224;-2.328;2022-08-01T15:47:37;1.00;;;0.10;;
65073;SDS011;52218;51.224;-2.328;2022-08-01T15:51:19;0.52;;;0.10;;
65073;SDS011;52218;51.224;-2.328;2022-08-01T15:55:01;1.55;;;0.20;;
65073;SDS011;52218;51.224;-2.328;2022-08-01T15:58:44;2.33;;;0.10;;
65073;SDS011;52218;51.224;-2.328;2022-08-01T16:02:26;0.32;;;0.10;;
65073;SDS011;52218;51.224;-2.328;2022-08-01T16:06:08;0.40;;;0.13;;
65073;SDS011;52218;51.224;-2.328;2022-08-01T16:09:50;1.63;;;0.20;;
65073;SDS011;52218;51.224;-2.328;2022-08-01T16:13:32;0.45;;;0.10;;
65073;SDS011;52218;51.224;-2.328;2022-08-01T16:17:14;0.50;;;0.20;;
65073;SDS011;52218;51.224;-2.328;2022-08-01T16:20:56;0.98;;;0.10;;
65073;SDS011;52218;51.224;-2.328;2022-08-01T16:24:41;4.05;;;0.13;;
65073;SDS011;52218;51.224;-2.328;2022-08-01T16:28:23;1.58;;;0.20;;
65073;SDS011;52218;51.224;-2.328;2022-08-01T16:32:05;0.80;;;0.25;;
65073;SDS011;52218;51.224;-2.328;2022-08-01T16:35:48;2.03;;;0.28;;
65073;SDS011;52218;51.224;-2.328;2022-08-01T16:39:31;0.22;;;0.10;;
65073;SDS011;52218;51.224;-2.328;2022-08-01T16:43:18;1.10;;;0.20;;
65073;SDS011;52218;51.224;-2.328;2022-08-01T16:47:01;1.70;;;0.30;;
65073;SDS011;52218;51.224;-2.328;2022-08-01T16:50:44;1.35;;;0.38;;
65073;SDS011;52218;51.224;-2.328;2022-08-01T16:54:30;0.70;;;0.20;;
65073;SDS011;52218;51.224;-2.328;2022-08-01T16:58:13;1.17;;;0.20;;
65073;SDS011;52218;51.224;-2.328;2022-08-01T17:02:08;3.05;;;0.40;;
65073;SDS011;52218;51.224;-2.328;2022-08-01T17:05:51;1.42;;;0.30;;
65073;SDS011;52218;51.224;-2.328;2022-08-01T17:09:33;1.70;;;0.30;;
65073;SDS011;52218;51.224;-2.328;2022-08-01T17:13:23;1.10;;;0.32;;
65073;SDS011;52218;51.224;-2.328;2022-08-01T17:17:05;2.75;;;0.40;;
65073;SDS011;52218;51.224;-2.328;2022-08-01T17:20:47;1.95;;;0.40;;
65073;SDS011;52218;51.224;-2.328;2022-08-01T17:24:30;1.65;;;0.30;;
65073;SDS011;52218;51.224;-2.328;2022-08-01T17:28:12;2.78;;;0.28;;
65073;SDS011;52218;51.224;-2.328;2022-08-01T17:31:55;1.05;;;0.35;;
65073;SDS011;52218;51.224;-2.328;2022-08-01T17:35:37;1.45;;;0.38;;
65073;SDS011;52218;51.224;-2.328;2022-08-01T17:39:19;2.65;;;0.30;;
65073;SDS011;52218;51.224;-2.328;2022-08-01T17:43:19;1.40;;;0.30;;
65073;SDS011;52218;51.224;-2.328;2022-08-01T17:47:04;0.93;;;0.50;;
65073;SDS011;52218;51.224;-2.328;2022-08-01T17:50:47;2.97;;;0.40;;
65073;SDS011;52218;51.224;-2.328;2022-08-01T17:54:29;1.40;;;0.30;;
65073;SDS011;52218;51.224;-2.328;2022-08-01T17:58:11;2.63;;;0.30;;
65073;SDS011;52218;51.224;-2.328;2022-08-01T18:01:54;1.55;;;0.45;;
65073;SDS011;52218;51.224;-2.328;2022-08-01T18:05:36;0.47;;;0.20;;
65073;SDS011;52218;51.224;-2.328;2022-08-01T18:09:19;1.20;;;0.32;;
65073;SDS011;52218;51.224;-2.328;2022-08-01T18:13:01;1.40;;;0.40;;
65073;SDS011;52218;51.224;-2.328;2022-08-01T18:16:46;0.88;;;0.30;;
65073;SDS011;52218;51.224;-2.328;2022-08-01T18:20:28;1.63;;;0.52;;
65073;SDS011;52218;51.224;-2.328;2022-08-01T18:24:10;1.88;;;0.43;;
65073;SDS011;52218;51.224;-2.328;2022-08-01T18:27:52;2.08;;;0.30;;
65073;SDS011;52218;51.224;-2.328;2022-08-01T18:31:55;1.77;;;0.30;;
65073;SDS011;52218;51.224;-2.328;2022-08-01T18:35:42;1.55;;;0.32;;
65073;SDS011;52218;51.224;-2.328;2022-08-01T18:39:34;2.25;;;0.50;;
65073;SDS011;52218;51.224;-2.328;2022-08-01T18:43:16;1.52;;;0.60;;
65073;SDS011;52218;51.224;-2.328;2022-08-01T18:46:58;1.30;;;0.40;;
65073;SDS011;52218;51.224;-2.328;2022-08-01T18:50:40;1.58;;;0.43;;
65073;SDS011;52218;51.224;-2.328;2022-08-01T18:54:22;1.05;;;0.45;;
65073;SDS011;52218;51.224;-2.328;2022-08-01T18:58:08;0.95;;;0.40;;
65073;SDS011;52218;51.224;-2.328;2022-08-01T19:01:50;2.38;;;0.60;;
65073;SDS011;52218;51.224;-2.328;2022-08-01T19:05:32;1.33;;;0.40;;
65073;SDS011;52218;51.224;-2.328;2022-08-01T19:09:16;1.13;;;0.40;;
65073;SDS011;52218;51.224;-2.328;2022-08-01T19:13:01;1.77;;;0.40;;
65073;SDS011;52218;51.224;-2.328;2022-08-01T19:16:44;4.43;;;0.40;;
65073;SDS011;52218;51.224;-2.328;2022-08-01T19:20:26;2.97;;;0.52;;
65073;SDS011;52218;51.224;-2.328;2022-08-01T19:24:08;1.45;;;0.52;;
65073;SDS011;52218;51.224;-2.328;2022-08-01T19:28:04;3.10;;;0.57;;
65073;SDS011;52218;51.224;-2.328;2022-08-01T19:31:46;1.35;;;0.50;;
65073;SDS011;52218;51.224;-2.328;2022-08-01T19:35:29;3.83;;;0.52;;
65073;SDS011;52218;51.224;-2.328;2022-08-01T19:39:12;4.07;;;0.75;;
65073;SDS011;52218;51.224;-2.328;2022-08-01T19:42:57;1.52;;;0.50;;
65073;SDS011;52218;51.224;-2.328;2022-08-01T19:46:40;2.58;;;0.50;;
65073;SDS011;52218;51.224;-2.328;2022-08-01T19:50:26;2.75;;;0.57;;
65073;SDS011;52218;51.224;-2.328;2022-08-01T19:54:09;2.25;;;0.60;;
65073;SDS011;52218;51.224;-2.328;2022-08-01T19:57:52;3.20;;;0.60;;
65073;SDS011;52218;51.224;-2.328;2022-08-01T20:01:57;2.97;;;0.60;;
65073;SDS011;52218;51.224;-2.328;2022-08-01T20:05:39;2.95;;;1.10;;
65073;SDS011;52218;51.224;-2.328;2022-08-01T20:09:21;1.45;;;0.40;;
65073;SDS011;52218;51.224;-2.328;2022-08-01T20:13:04;1.70;;;0.40;;
65073;SDS011;52218;51.224;-2.328;2022-08-01T20:16:50;0.70;;;0.40;;
65073;SDS011;52218;51.224;-2.328;2022-08-01T20:20:33;2.05;;;0.50;;
65073;SDS011;52218;51.224;-2.328;2022-08-01T20:24:17;3.33;;;0.90;;
65073;SDS011;52218;51.224;-2.328;2022-08-01T20:28:02;2.70;;;0.60;;
65073;SDS011;52218;51.224;-2.328;2022-08-01T20:31:46;4.43;;;0.60;;
65073;SDS011;52218;51.224;-2.328;2022-08-01T20:35:29;4.78;;;0.73;;
65073;SDS011;52218;51.224;-2.328;2022-08-01T20:39:33;1.63;;;0.60;;
65073;SDS011;52218;51.224;-2.328;2022-08-01T20:43:17;2.53;;;0.68;;
65073;SDS011;52218;51.224;-2.328;2022-08-01T20:47:02;1.00;;;0.50;;
65073;SDS011;52218;51.224;-2.328;2022-08-01T20:50:49;3.33;;;0.65;;
65073;SDS011;52218;51.224;-2.328;2022-08-01T20:54:50;2.35;;;0.60;;
65073;SDS011;52218;51.224;-2.328;2022-08-01T20:58:36;0.80;;;0.50;;
65073;SDS011;52218;51.224;-2.328;2022-08-01T21:02:49;2.92;;;0.50;;
65073;SDS011;52218;51.224;-2.328;2022-08-01T21:06:45;3.63;;;0.68;;
65073;SDS011;52218;51.224;-2.328;2022-08-01T21:10:35;0.93;;;0.50;;
65073;SDS011;52218;51.224;-2.328;2022-08-01T21:14:21;1.95;;;0.52;;
65073;SDS011;52218;51.224;-2.328;2022-08-01T21:18:19;0.90;;;0.50;;
65073;SDS011;52218;51.224;-2.328;2022-08-01T21:22:08;3.25;;;0.75;;
65073;SDS011;52218;51.224;-2.328;2022-08-01T21:25:56;4.45;;;0.70;;
65073;SDS011;52218;51.224;-2.328;2022-08-01T21:29:39;4.70;;;0.90;;
65073;SDS011;52218;51.224;-2.328;2022-08-01T21:33:22;2.83;;;0.80;;
65073;SDS011;52218;51.224;-2.328;2022-08-01T21:37:07;3.42;;;0.75;;
65073;SDS011;52218;51.224;-2.328;2022-08-01T21:40:50;2.15;;;0.60;;
65073;SDS011;52218;51.224;-2.328;2022-08-01T21:44:33;2.03;;;0.60;;
65073;SDS011;52218;51.224;-2.328;2022-08-01T21:48:19;2.15;;;0.63;;
65073;SDS011;52218;51.224;-2.328;2022-08-01T21:52:11;2.72;;;0.75;;
65073;SDS011;52218;51.224;-2.328;2022-08-01T21:56:07;1.73;;;0.70;;
65073;SDS011;52218;51.224;-2.328;2022-08-01T22:00:29;0.95;;;0.50;;
65073;SDS011;52218;51.224;-2.328;2022-08-01T22:04:12;1.40;;;0.55;;
65073;SDS011;52218;51.224;-2.328;2022-08-01T22:07:59;1.63;;;0.50;;
65073;SDS011;52218;51.224;-2.328;2022-08-01T22:11:43;3.42;;;0.60;;
65073;SDS011;52218;51.224;-2.328;2022-08-01T22:15:41;0.82;;;0.40;;
65073;SDS011;52218;51.224;-2.328;2022-08-01T22:19:26;1.40;;;0.40;;
65073;SDS011;52218;51.224;-2.328;2022-08-01T22:23:25;1.73;;;0.70;;
65073;SDS011;52218;51.224;-2.328;2022-08-01T22:27:08;3.25;;;0.57;;
65073;SDS011;52218;51.224;-2.328;2022-08-01T22:31:24;1.23;;;0.45;;
65073;SDS011;52218;51.224;-2.328;2022-08-01T22:35:07;1.55;;;0.52;;
65073;SDS011;52218;51.224;-2.328;2022-08-01T22:38:52;2.08;;;0.60;;
65073;SDS011;52218;51.224;-2.328;2022-08-01T22:42:44;1.88;;;0.40;;
65073;SDS011;52218;51.224;-2.328;2022-08-01T22:50:32;1.63;;;0.70;;
65073;SDS011;52218;51.224;-2.328;2022-08-01T22:54:20;1.67;;;0.52;;
65073;SDS011;52218;51.224;-2.328;2022-08-01T22:58:10;3.28;;;0.70;;